Cathma — PJTL — position and weather

sailwx.info

Track history (hours):
 
Tides and Currents Weather Stations Pressure Air Temp Water Temp Dewpoint Dewpoint Depression Visibility Wind Speed Wind Dir Waves Ship Positions

Cathma

Last reported at 2017-Jul-20 19:59 UTC. Time now 2017-Jul-20 20:20 UTC.
Position N 57°12' E 011°37'.

Length 112 m; draft 6.3 m.

Type: Ship. MMSI: 306832000.

Date/timePositionNaut miles runAvg speedWind from/ knotsBaromVisibWave heightAir tempDewpointWater temp
2017-Jul-20 19:59N 57°12' E 011°37'611.8
2017-Jul-20 19:26N 57°06' E 011°41'611.6
2017-Jul-20 18:57N 57°00' E 011°44'511.4
2017-Jul-20 18:29N 56°55' E 011°47'2211.0
2017-Jul-20 16:29N 56°34' E 011°59'2610.3
2017-Jul-20 14:01N 56°12' E 012°21'611.8
2017-Jul-20 13:31N 56°08' E 012°30'713.3
2017-Jul-20 13:01N 56°04' E 012°39'611.9
2017-Jul-20 12:31N 55°58' E 012°42'611.7
2017-Jul-20 12:00N 55°52' E 012°44'611.4
2017-Jul-20 11:31N 55°47' E 012°43'611.5
2017-Jul-20 11:01N 55°41' E 012°41'611.7
2017-Jul-20 10:31N 55°35' E 012°42'510.8
2017-Jul-20 10:01N 55°30' E 012°43'510.7
2017-Jul-20 09:30N 55°25' E 012°42'510.4
2017-Jul-20 09:00N 55°19' E 012°41'5 9.8
2017-Jul-20 08:30N 55°17' E 012°48'510.6
2017-Jul-20 08:00N 55°16' E 012°58'510.8
2017-Jul-20 07:30N 55°16' E 013°07'611.0
2017-Jul-20 07:00N 55°15' E 013°17'811.0
2017-Jul-20 06:19N 55°15' E 013°30'310.9
2017-Jul-20 06:00N 55°15' E 013°36'611.2
2017-Jul-20 05:28N 55°14' E 013°47'511.2
2017-Jul-20 05:00N 55°14' E 013°56'611.2
2017-Jul-20 04:30N 55°14' E 014°05'611.0
2017-Jul-20 04:00N 55°14' E 014°15'510.4
2017-Jul-20 03:30N 55°18' E 014°21'510.9
2017-Jul-20 03:00N 55°22' E 014°27'611.0
2017-Jul-20 02:30N 55°26' E 014°33'510.8
2017-Jul-20 02:01N 55°29' E 014°41'510.7
2017-Jul-20 01:31N 55°32' E 014°49'510.9
2017-Jul-20 01:01N 55°35' E 014°58'611.2
2017-Jul-20 00:31N 55°37' E 015°06'611.4
2017-Jul-20 00:01N 55°40' E 015°15'611.3
2017-Jul-19 23:31N 55°43' E 015°24'611.2
2017-Jul-19 23:00N 55°46' E 015°32'611.2
2017-Jul-19 22:31N 55°49' E 015°41'611.4
2017-Jul-19 22:01N 55°51' E 015°50'611.3
2017-Jul-19 21:31N 55°54' E 015°58'611.1
2017-Jul-19 21:00N 55°57' E 016°07'611.3
2017-Jul-19 20:30N 55°60' E 016°16'611.2
2017-Jul-19 20:01N 56°03' E 016°24'611.3
2017-Jul-19 19:31N 56°06' E 016°33'611.2
2017-Jul-19 19:01N 56°08' E 016°42'510.9
2017-Jul-19 18:30N 56°13' E 016°46'611.1
2017-Jul-19 18:00N 56°18' E 016°50'510.9
2017-Jul-19 17:30N 56°24' E 016°53'610.7
2017-Jul-19 16:57N 56°29' E 016°57'611.0
2017-Jul-19 16:26N 56°34' E 017°01'511.2
2017-Jul-19 16:00N 56°39' E 017°04'16911.1
2017-Jul-19 00:45N 59°09' E 019°31'310.7
2017-Jul-19 00:26N 59°12' E 019°35'510.9
2017-Jul-19 00:00N 59°16' E 019°39'510.9
2017-Jul-18 23:30N 59°21' E 019°44'610.9
2017-Jul-18 23:00N 59°25' E 019°50'510.8
2017-Jul-18 22:31N 59°30' E 019°55'510.8
2017-Jul-18 22:01N 59°35' E 019°58'611.0
2017-Jul-18 21:30N 59°40' E 019°52'611.0
2017-Jul-18 21:00N 59°44' E 019°45'611.8
2017-Jul-18 20:30N 59°49' E 019°37'510.7
2017-Jul-18 20:00N 59°53' E 019°31'611.9
2017-Jul-18 19:30N 59°57' E 019°23'510.1
2017-Jul-18 19:01N 60°01' E 019°16'611.1
2017-Jul-18 18:31N 60°05' E 019°09'611.1
2017-Jul-18 18:00N 60°10' E 019°02'510.9
2017-Jul-18 17:31N 60°15' E 019°00'611.0
2017-Jul-18 17:01N 60°21' E 018°59'611.0
2017-Jul-18 16:31N 60°26' E 018°59'611.0
2017-Jul-18 16:00N 60°32' E 018°59'611.1
2017-Jul-18 15:31N 60°37' E 019°01'611.0
2017-Jul-18 15:01N 60°42' E 019°03'1111.1
2017-Jul-18 14:00N 60°53' E 019°08'611.1
2017-Jul-18 13:31N 60°59' E 019°10'8210.8
2017-Jul-18 05:54N 62°19' E 019°44'410.4
2017-Jul-18 05:30N 62°23' E 019°46'510.3
2017-Jul-18 05:00N 62°28' E 019°48'510.3
2017-Jul-18 04:30N 62°33' E 019°50'510.4
2017-Jul-18 03:59N 62°38' E 019°52'510.6
2017-Jul-18 03:30N 62°43' E 019°55'510.6
2017-Jul-18 03:00N 62°49' E 019°57'510.5
2017-Jul-18 02:31N 62°54' E 019°59'510.8
2017-Jul-18 02:01N 62°59' E 020°01'511.0
2017-Jul-18 01:31N 63°04' E 020°04'611.2
2017-Jul-18 01:00N 63°10' E 020°06'510.9
2017-Jul-18 00:31N 63°14' E 020°13'611.2
2017-Jul-18 00:01N 63°19' E 020°21'611.2
2017-Jul-17 23:31N 63°23' E 020°29'510.9
2017-Jul-17 23:00N 63°27' E 020°37'510.7
2017-Jul-17 22:31N 63°32' E 020°42'510.4
2017-Jul-17 22:00N 63°33' E 020°53'510.4
2017-Jul-17 21:30N 63°35' E 021°04'510.5
2017-Jul-17 21:01N 63°38' E 021°14'611.1
2017-Jul-17 20:30N 63°41' E 021°25'510.5
2017-Jul-17 20:00N 63°43' E 021°36'510.5
2017-Jul-17 19:31N 63°46' E 021°46'510.9
2017-Jul-17 19:01N 63°48' E 021°57'510.9
2017-Jul-17 18:31N 63°51' E 022°08'510.7
2017-Jul-17 18:01N 63°53' E 022°19'510.8
2017-Jul-17 17:31N 63°56' E 022°29'510.7
2017-Jul-17 17:00N 63°59' E 022°40'5 9.7
2017-Jul-17 16:31N 64°00' E 022°51'510.6
2017-Jul-17 16:00N 63°56' E 022°58'4 8.9
2017-Jul-17 15:31N 63°52' E 023°02'0 0.1
2017-Jul-17 15:00N 63°52' E 023°02'0 0.0
2017-Jul-17 14:30N 63°52' E 023°02'0 0.0
2017-Jul-17 13:59N 63°52' E 023°02'0 0.0
2017-Jul-17 13:23N 63°52' E 023°02'0 0.0
2017-Jul-17 12:59N 63°52' E 023°02'0 0.0
2017-Jul-17 12:29N 63°52' E 023°02'0 0.0
2017-Jul-17 11:58N 63°52' E 023°02'0 0.0
2017-Jul-17 11:22N 63°52' E 023°02'0 0.0
2017-Jul-17 10:58N 63°52' E 023°02'0 0.0
2017-Jul-17 10:28N 63°52' E 023°02'0 0.0
2017-Jul-17 09:58N 63°52' E 023°02'0 0.0
2017-Jul-17 09:27N 63°52' E 023°02'0 0.0
2017-Jul-17 09:00N 63°52' E 023°02'0 0.0
2017-Jul-17 08:27N 63°52' E 023°02'0 0.0
2017-Jul-17 07:57N 63°52' E 023°02'0 0.0
2017-Jul-17 07:27N 63°52' E 023°02'0 0.0
2017-Jul-17 06:56N 63°52' E 023°02'0 0.0
2017-Jul-17 06:26N 63°52' E 023°02'0 0.0
2017-Jul-17 05:56N 63°52' E 023°02'0 0.0
2017-Jul-17 05:29N 63°52' E 023°02'0 0.0
2017-Jul-17 04:58N 63°52' E 023°02'0 0.0
2017-Jul-17 04:25N 63°52' E 023°02'0 0.0
2017-Jul-17 03:55N 63°52' E 023°02'0 0.0
2017-Jul-17 03:25N 63°52' E 023°02'0 0.0
2017-Jul-17 02:55N 63°52' E 023°02'0 0.0
2017-Jul-17 02:30N 63°52' E 023°02'0 0.0
2017-Jul-17 02:00N 63°52' E 023°02'0 0.0
2017-Jul-17 01:30N 63°52' E 023°02'0 0.0
2017-Jul-17 01:00N 63°52' E 023°02'0 0.0
2017-Jul-17 00:30N 63°52' E 023°02'0 0.0
2017-Jul-16 23:59N 63°52' E 023°02'0 0.0
2017-Jul-16 23:29N 63°52' E 023°02'0 0.0
2017-Jul-16 22:59N 63°52' E 023°02'0 0.0
2017-Jul-16 22:29N 63°52' E 023°02'0 0.0
2017-Jul-16 21:58N 63°52' E 023°02'0 0.0
2017-Jul-16 21:28N 63°52' E 023°02'0 0.0
2017-Jul-16 21:00N 63°52' E 023°02'0 0.0
2017-Jul-16 20:27N 63°52' E 023°02'0 0.0
2017-Jul-16 19:57N 63°52' E 023°02'0 0.0
2017-Jul-16 19:28N 63°52' E 023°02'0 0.0
2017-Jul-16 18:57N 63°52' E 023°02'0 0.0
2017-Jul-16 18:30N 63°52' E 023°02'0 0.0
2017-Jul-16 18:00N 63°52' E 023°02'0 0.0
2017-Jul-16 17:29N 63°52' E 023°02'0 0.0
2017-Jul-16 16:59N 63°52' E 023°02'0 0.0
2017-Jul-16 16:29N 63°52' E 023°02'0 0.0
2017-Jul-16 15:59N 63°52' E 023°02'0 0.0
2017-Jul-16 15:29N 63°52' E 023°02'0 0.0
2017-Jul-16 14:55N 63°52' E 023°02'0 0.0
2017-Jul-16 14:29N 63°52' E 023°02'0 0.0
2017-Jul-16 13:59N 63°52' E 023°02'0 0.0
2017-Jul-16 13:28N 63°52' E 023°02'0 0.0
2017-Jul-16 12:56N 63°52' E 023°02'0 0.0
2017-Jul-16 12:28N 63°52' E 023°02'0 0.0
2017-Jul-16 11:54N 63°52' E 023°02'0 0.0
2017-Jul-16 11:26N 63°52' E 023°02'0 0.2
2017-Jul-16 11:01N 63°52' E 023°02'3 6.8
2017-Jul-16 10:30N 63°55' E 022°58'611.6
2017-Jul-16 10:00N 63°60' E 022°51'510.6
2017-Jul-16 09:30N 63°58' E 022°39'611.0
2017-Jul-16 09:00N 63°55' E 022°28'510.1
2017-Jul-16 08:30N 63°53' E 022°18'612.2
2017-Jul-16 08:00N 63°50' E 022°06'612.3
2017-Jul-16 07:30N 63°47' E 021°54'612.0
2017-Jul-16 07:00N 63°44' E 021°42'611.7
2017-Jul-16 06:31N 63°41' E 021°30'612.5
2017-Jul-16 06:00N 63°38' E 021°18'612.6
2017-Jul-16 05:30N 63°35' E 021°05'612.2
2017-Jul-16 05:00N 63°33' E 020°52'611.7
2017-Jul-16 04:30N 63°30' E 020°42'612.9
2017-Jul-16 04:00N 63°24' E 020°34'612.8
2017-Jul-16 03:31N 63°19' E 020°28'713.2
2017-Jul-16 03:00N 63°12' E 020°26'612.5
2017-Jul-16 02:30N 63°06' E 020°25'714.3
2017-Jul-16 02:00N 62°59' E 020°25'612.4
2017-Jul-16 01:31N 62°53' E 020°24'611.8
2017-Jul-16 01:00N 62°47' E 020°23'714.0
2017-Jul-16 00:30N 62°40' E 020°25'612.9
2017-Jul-16 00:00N 62°34' E 020°30'612.6
2017-Jul-15 23:30N 62°28' E 020°35'612.9
2017-Jul-15 23:00N 62°22' E 020°39'612.4
2017-Jul-15 22:30N 62°16' E 020°44'612.4
2017-Jul-15 22:00N 62°10' E 020°48'612.3
2017-Jul-15 21:30N 62°04' E 020°53'714.4
2017-Jul-15 21:00N 61°58' E 020°58'611.8
2017-Jul-15 20:30N 61°52' E 021°03'713.7
2017-Jul-15 20:00N 61°46' E 021°08'713.5
2017-Jul-15 19:30N 61°39' E 021°12'510.2
2017-Jul-15 19:00N 61°34' E 021°16'4 8.2
2017-Jul-15 18:31N 61°35' E 021°25'3 4.9
2017-Jul-15 17:58N 61°36' E 021°30'0 0.0
2017-Jul-15 17:28N 61°36' E 021°30'0 0.0
2017-Jul-15 16:58N 61°36' E 021°30'0 0.0
2017-Jul-15 16:28N 61°36' E 021°30'0 0.0
2017-Jul-15 15:58N 61°36' E 021°30'0 0.0
2017-Jul-15 15:30N 61°36' E 021°30'0 0.0
2017-Jul-15 15:00N 61°36' E 021°30'0 0.0
2017-Jul-15 14:00N 61°36' E 021°30'0 0.0
2017-Jul-15 13:29N 61°36' E 021°30'0 0.0
2017-Jul-15 12:59N 61°36' E 021°30'0 0.0
2017-Jul-15 12:29N 61°36' E 021°30'0 0.0
2017-Jul-15 11:59N 61°36' E 021°30'0 0.0
2017-Jul-15 11:29N 61°36' E 021°30'0 0.0
2017-Jul-15 10:58N 61°36' E 021°30'0 0.0
2017-Jul-15 10:28N 61°36' E 021°30'0 0.0
2017-Jul-15 09:58N 61°36' E 021°30'0 0.0
2017-Jul-15 09:28N 61°36' E 021°30'0 0.0
2017-Jul-15 08:57N 61°36' E 021°30'0 0.0
2017-Jul-15 08:30N 61°36' E 021°30'0 0.0
2017-Jul-15 08:00N 61°36' E 021°30'0 0.0
2017-Jul-15 07:30N 61°36' E 021°30'0 0.0
2017-Jul-15 07:00N 61°36' E 021°30'0 0.0
2017-Jul-15 06:29N 61°36' E 021°30'0 0.0
2017-Jul-15 05:59N 61°36' E 021°30'0 0.0
2017-Jul-15 05:29N 61°36' E 021°30'0 0.0
2017-Jul-15 04:59N 61°36' E 021°30'0 0.0
2017-Jul-15 04:29N 61°36' E 021°30'0 0.0
2017-Jul-15 03:58N 61°36' E 021°30'0 0.0
2017-Jul-15 03:28N 61°36' E 021°30'0 0.0
2017-Jul-15 02:58N 61°36' E 021°30'0 0.0
2017-Jul-15 02:28N 61°36' E 021°30'0 0.0
2017-Jul-15 02:00N 61°36' E 021°30'0 0.0
2017-Jul-15 01:30N 61°36' E 021°30'0 0.0
2017-Jul-15 01:00N 61°36' E 021°30'0 0.0
2017-Jul-15 00:30N 61°36' E 021°30'0 0.0
2017-Jul-15 00:00N 61°36' E 021°30'0 0.0
2017-Jul-14 23:29N 61°36' E 021°30'0 0.0
2017-Jul-14 22:59N 61°36' E 021°30'0 0.0
2017-Jul-14 22:26N 61°36' E 021°30'0 0.0
2017-Jul-14 21:59N 61°36' E 021°30'0 0.0
2017-Jul-14 21:29N 61°36' E 021°30'0 0.0
2017-Jul-14 20:58N 61°36' E 021°30'0 0.0
2017-Jul-14 20:28N 61°36' E 021°30'0 0.0
2017-Jul-14 19:59N 61°36' E 021°30'0 0.0
2017-Jul-14 19:28N 61°36' E 021°30'0 0.0
2017-Jul-14 18:58N 61°36' E 021°30'0 0.0
2017-Jul-14 18:26N 61°36' E 021°30'0 0.0
2017-Jul-14 17:59N 61°36' E 021°30'0 0.0
2017-Jul-14 17:28N 61°36' E 021°30'0 0.0
2017-Jul-14 16:58N 61°36' E 021°30'0 0.0
2017-Jul-14 16:27N 61°36' E 021°30'0 0.0
2017-Jul-14 15:59N 61°36' E 021°30'0 0.0
2017-Jul-14 15:27N 61°36' E 021°30'0 0.0
2017-Jul-14 14:59N 61°36' E 021°30'0 0.0
2017-Jul-14 14:26N 61°36' E 021°30'0 0.0
2017-Jul-14 13:59N 61°36' E 021°30'0 0.0
2017-Jul-14 13:28N 61°36' E 021°30'0 0.0
2017-Jul-14 12:58N 61°36' E 021°30'0 0.0
2017-Jul-14 12:29N 61°36' E 021°30'0 0.0
2017-Jul-14 12:00N 61°36' E 021°30'0 0.0
2017-Jul-14 11:30N 61°36' E 021°30'0 0.0
2017-Jul-14 10:58N 61°36' E 021°30'0 0.0
2017-Jul-14 10:27N 61°36' E 021°30'0 0.0
2017-Jul-14 09:51N 61°36' E 021°30'0 0.0
2017-Jul-14 09:30N 61°36' E 021°30'0 0.0
2017-Jul-14 09:00N 61°36' E 021°30'0 0.0
2017-Jul-14 08:29N 61°36' E 021°30'0 0.0
2017-Jul-14 07:59N 61°36' E 021°30'0 0.0
2017-Jul-14 07:26N 61°36' E 021°30'0 0.0
2017-Jul-14 06:59N 61°36' E 021°30'0 0.0
2017-Jul-14 06:30N 61°36' E 021°30'0 0.0
2017-Jul-14 06:00N 61°36' E 021°30'0 0.0
2017-Jul-14 05:31N 61°36' E 021°30'0 0.0
2017-Jul-14 05:01N 61°36' E 021°30'0 0.0
2017-Jul-14 04:30N 61°36' E 021°30'0 0.0
2017-Jul-14 04:00N 61°36' E 021°30'0 0.0
2017-Jul-14 03:30N 61°36' E 021°30'0 0.0
2017-Jul-14 03:00N 61°36' E 021°30'0 0.0
2017-Jul-14 02:30N 61°36' E 021°30'0 0.0
2017-Jul-14 02:00N 61°36' E 021°30'0 0.0
2017-Jul-14 01:30N 61°36' E 021°30'0 0.0
2017-Jul-14 01:00N 61°36' E 021°30'0 0.0
2017-Jul-14 00:30N 61°36' E 021°30'0 0.0
2017-Jul-14 00:00N 61°36' E 021°30'0 0.0
2017-Jul-13 23:30N 61°36' E 021°30'0 0.0
2017-Jul-13 23:00N 61°36' E 021°30'0 0.0
2017-Jul-13 22:30N 61°36' E 021°30'0 0.0
2017-Jul-13 22:00N 61°36' E 021°30'0 0.0
2017-Jul-13 21:30N 61°36' E 021°30'0 0.0
2017-Jul-13 21:00N 61°36' E 021°30'0 0.0
2017-Jul-13 20:30N 61°36' E 021°30'0 0.0
2017-Jul-13 20:00N 61°36' E 021°30'0 0.0
2017-Jul-13 19:30N 61°36' E 021°30'0 0.0
2017-Jul-13 19:00N 61°36' E 021°30'0 0.0
2017-Jul-13 18:30N 61°36' E 021°30'0 0.0
2017-Jul-13 18:00N 61°36' E 021°30'0 0.0
2017-Jul-13 17:30N 61°36' E 021°30'0 0.0
2017-Jul-13 17:00N 61°36' E 021°30'0 0.0
2017-Jul-13 16:30N 61°36' E 021°30'0 0.0
2017-Jul-13 16:00N 61°36' E 021°30'0 0.0
2017-Jul-13 15:30N 61°36' E 021°30'0 0.0
2017-Jul-13 15:00N 61°36' E 021°30'0 0.0
2017-Jul-13 14:30N 61°36' E 021°30'0 0.0
2017-Jul-13 14:00N 61°36' E 021°30'0 0.0
2017-Jul-13 13:30N 61°36' E 021°30'0 0.0
2017-Jul-13 13:00N 61°36' E 021°30'0 0.0
2017-Jul-13 12:30N 61°36' E 021°30'0 0.0
2017-Jul-13 12:00N 61°36' E 021°30'0 0.0
2017-Jul-13 11:30N 61°36' E 021°30'0 0.0
2017-Jul-13 11:00N 61°36' E 021°30'0 0.0
2017-Jul-13 10:30N 61°36' E 021°30'0 0.0
2017-Jul-13 10:00N 61°36' E 021°30'0 0.0
2017-Jul-13 09:30N 61°36' E 021°30'0 0.0
2017-Jul-13 09:00N 61°36' E 021°30'0 0.0
2017-Jul-13 08:30N 61°36' E 021°30'0 0.0
2017-Jul-13 08:00N 61°36' E 021°30'0 0.0
2017-Jul-13 07:30N 61°36' E 021°30'0 0.0
2017-Jul-13 07:00N 61°36' E 021°30'0 0.0
2017-Jul-13 06:30N 61°36' E 021°30'0 0.0
2017-Jul-13 06:00N 61°36' E 021°30'0 0.0
2017-Jul-13 05:30N 61°36' E 021°30'0 0.0
2017-Jul-13 05:00N 61°36' E 021°30'0 0.0
2017-Jul-13 04:30N 61°36' E 021°30'0 0.0
2017-Jul-13 04:00N 61°36' E 021°30'0 0.0
2017-Jul-13 03:30N 61°36' E 021°30'0 0.0
2017-Jul-13 03:00N 61°36' E 021°30'0 0.0
2017-Jul-13 02:30N 61°36' E 021°30'0 0.0
2017-Jul-13 02:00N 61°36' E 021°30'0 0.0
2017-Jul-13 01:30N 61°36' E 021°30'0 0.0
2017-Jul-13 01:00N 61°36' E 021°30'0 0.0
2017-Jul-13 00:30N 61°36' E 021°30'0 0.0
2017-Jul-13 00:00N 61°36' E 021°30'0 0.0
2017-Jul-12 23:30N 61°36' E 021°30'0 0.0
2017-Jul-12 23:01N 61°36' E 021°30'0 0.0
2017-Jul-12 22:30N 61°36' E 021°30'0 0.0
2017-Jul-12 22:00N 61°36' E 021°30'0 0.0
2017-Jul-12 21:30N 61°36' E 021°30'0 0.0
2017-Jul-12 21:00N 61°36' E 021°30'0 0.0
2017-Jul-12 20:30N 61°36' E 021°30'0 0.0
2017-Jul-12 20:00N 61°36' E 021°30'0 0.0
2017-Jul-12 19:30N 61°36' E 021°30'0 0.0
2017-Jul-12 19:00N 61°36' E 021°30'0 0.0
2017-Jul-12 18:30N 61°36' E 021°30'0 0.0
2017-Jul-12 18:00N 61°36' E 021°30'0 0.0
2017-Jul-12 17:30N 61°36' E 021°30'0 0.0
2017-Jul-12 17:00N 61°36' E 021°30'0 0.0
2017-Jul-12 16:30N 61°36' E 021°30'0 0.0
2017-Jul-12 16:00N 61°36' E 021°30'0 0.0
2017-Jul-12 15:31N 61°36' E 021°30'0 0.0
2017-Jul-12 15:00N 61°36' E 021°30'0 0.0
2017-Jul-12 14:00N 61°36' E 021°30'0 0.0
2017-Jul-12 13:30N 61°36' E 021°30'0 0.0
2017-Jul-12 13:00N 61°36' E 021°30'0 0.0
2017-Jul-12 12:30N 61°36' E 021°30'0 0.0
2017-Jul-12 12:00N 61°36' E 021°30'0 0.0
2017-Jul-12 11:30N 61°36' E 021°30'0 0.0
2017-Jul-12 11:00N 61°36' E 021°30'0 0.0
2017-Jul-12 10:30N 61°36' E 021°30'0 0.0
2017-Jul-12 10:00N 61°36' E 021°30'0 0.0
2017-Jul-12 09:30N 61°36' E 021°30'0 0.0
2017-Jul-12 09:00N 61°36' E 021°30'0 0.0
2017-Jul-12 08:30N 61°36' E 021°30'0 0.0
2017-Jul-12 08:00N 61°36' E 021°30'0 0.0
2017-Jul-12 07:31N 61°36' E 021°30'0 0.0
2017-Jul-12 07:00N 61°36' E 021°30'0 0.0
2017-Jul-12 06:30N 61°36' E 021°30'0 0.0
2017-Jul-12 06:01N 61°36' E 021°30'0 0.0
2017-Jul-12 05:30N 61°36' E 021°30'0 0.0
2017-Jul-12 05:00N 61°36' E 021°30'0 0.0
2017-Jul-12 04:30N 61°36' E 021°30'0 0.0
2017-Jul-12 04:00N 61°36' E 021°30'0 0.0
2017-Jul-12 03:30N 61°36' E 021°30'0 0.0
2017-Jul-12 03:00N 61°36' E 021°30'0 0.0
2017-Jul-12 02:30N 61°36' E 021°30'0 0.0
2017-Jul-12 02:00N 61°36' E 021°30'0 0.0
2017-Jul-12 01:30N 61°36' E 021°30'0 0.0
2017-Jul-12 01:00N 61°36' E 021°30'0 0.0
2017-Jul-12 00:30N 61°36' E 021°30'0 0.0
2017-Jul-12 00:00N 61°36' E 021°30'0 0.0
2017-Jul-11 23:30N 61°36' E 021°30'0 0.0
2017-Jul-11 23:00N 61°36' E 021°30'0 0.0
2017-Jul-11 22:30N 61°36' E 021°30'0 0.0
2017-Jul-11 22:00N 61°36' E 021°30'0 0.0
2017-Jul-11 21:30N 61°36' E 021°30'0 0.0
2017-Jul-11 21:00N 61°36' E 021°30'0 0.0
2017-Jul-11 20:30N 61°36' E 021°30'0 0.0
2017-Jul-11 20:00N 61°36' E 021°30'0 0.0
2017-Jul-11 19:31N 61°36' E 021°30'0 0.0
2017-Jul-11 19:00N 61°36' E 021°30'0 0.0
2017-Jul-11 18:30N 61°36' E 021°30'0 0.0
2017-Jul-11 18:00N 61°36' E 021°30'0 0.0
2017-Jul-11 17:30N 61°36' E 021°30'0 0.0
2017-Jul-11 17:00N 61°36' E 021°30'0 0.0
2017-Jul-11 16:30N 61°36' E 021°30'0 0.0
2017-Jul-11 15:57N 61°36' E 021°30'0 0.0
2017-Jul-11 15:30N 61°36' E 021°30'0 0.0
2017-Jul-11 15:00N 61°36' E 021°30'0 0.0
2017-Jul-11 14:30N 61°36' E 021°30'0 0.0
2017-Jul-11 14:00N 61°36' E 021°30'0 0.0
2017-Jul-11 13:30N 61°36' E 021°30'0 0.0
2017-Jul-11 13:00N 61°36' E 021°30'0 0.0
2017-Jul-11 12:30N 61°36' E 021°30'0 0.0
2017-Jul-11 12:00N 61°36' E 021°30'0 0.0
2017-Jul-11 11:30N 61°36' E 021°30'0 0.0
2017-Jul-11 11:00N 61°36' E 021°30'0 0.0
2017-Jul-11 10:30N 61°36' E 021°30'0 0.0
2017-Jul-11 10:00N 61°36' E 021°30'0 0.0
2017-Jul-11 09:30N 61°36' E 021°30'0 0.0
2017-Jul-11 09:00N 61°36' E 021°30'0 0.0
2017-Jul-11 08:30N 61°36' E 021°30'0 0.0
2017-Jul-11 08:00N 61°36' E 021°30'0 0.0
2017-Jul-11 07:30N 61°36' E 021°30'0 0.0
2017-Jul-11 07:00N 61°36' E 021°30'0 0.0
2017-Jul-11 06:30N 61°36' E 021°30'0 0.0
2017-Jul-11 06:00N 61°36' E 021°30'0 0.0
2017-Jul-11 05:30N 61°36' E 021°30'0 0.0
2017-Jul-11 05:00N 61°36' E 021°30'0 0.0
2017-Jul-11 04:30N 61°36' E 021°30'0 0.0
2017-Jul-11 04:00N 61°36' E 021°30'0 0.0
2017-Jul-11 03:30N 61°36' E 021°30'0 0.0
2017-Jul-11 03:00N 61°36' E 021°30'0 0.0
2017-Jul-11 02:30N 61°36' E 021°30'0 0.0
2017-Jul-11 02:00N 61°36' E 021°30'0 0.0
2017-Jul-11 01:30N 61°36' E 021°30'0 0.0
2017-Jul-11 01:00N 61°36' E 021°30'0 0.0
2017-Jul-11 00:30N 61°36' E 021°30'0 0.0
2017-Jul-11 00:00N 61°36' E 021°30'0 0.0
2017-Jul-10 23:30N 61°36' E 021°30'0 0.0
2017-Jul-10 23:00N 61°36' E 021°30'0 0.0
2017-Jul-10 22:30N 61°36' E 021°30'0 0.0
2017-Jul-10 22:00N 61°36' E 021°30'0 0.0
2017-Jul-10 21:31N 61°36' E 021°30'0 0.0
2017-Jul-10 21:00N 61°36' E 021°30'0 0.0
2017-Jul-10 20:31N 61°36' E 021°30'0 0.0
2017-Jul-10 20:00N 61°36' E 021°30'  
Track history (hours):
 
Tides and Currents Weather Stations Pressure Air Temp Water Temp Dewpoint Dewpoint Depression Visibility Wind Speed Wind Dir Waves Ship Positions

Cathma

Last reported at 2017-Jul-20 19:59 UTC. Time now 2017-Jul-20 20:20 UTC.
Position N 57°12' E 011°37'.

Length 112 m; draft 6.3 m.

Type: Ship. MMSI: 306832000.

Date/timePositionNaut miles runAvg speedWind from/ knotsBaromVisibWave heightAir tempDewpointWater temp
2017-Jul-20 19:59N 57°12' E 011°37'611.8
2017-Jul-20 19:26N 57°06' E 011°41'611.6
2017-Jul-20 18:57N 57°00' E 011°44'511.4
2017-Jul-20 18:29N 56°55' E 011°47'2211.0
2017-Jul-20 16:29N 56°34' E 011°59'2610.3
2017-Jul-20 14:01N 56°12' E 012°21'611.8
2017-Jul-20 13:31N 56°08' E 012°30'713.3
2017-Jul-20 13:01N 56°04' E 012°39'611.9
2017-Jul-20 12:31N 55°58' E 012°42'611.7
2017-Jul-20 12:00N 55°52' E 012°44'611.4
2017-Jul-20 11:31N 55°47' E 012°43'611.5
2017-Jul-20 11:01N 55°41' E 012°41'611.7
2017-Jul-20 10:31N 55°35' E 012°42'510.8
2017-Jul-20 10:01N 55°30' E 012°43'510.7
2017-Jul-20 09:30N 55°25' E 012°42'510.4
2017-Jul-20 09:00N 55°19' E 012°41'5 9.8
2017-Jul-20 08:30N 55°17' E 012°48'510.6
2017-Jul-20 08:00N 55°16' E 012°58'510.8
2017-Jul-20 07:30N 55°16' E 013°07'611.0
2017-Jul-20 07:00N 55°15' E 013°17'811.0
2017-Jul-20 06:19N 55°15' E 013°30'310.9
2017-Jul-20 06:00N 55°15' E 013°36'611.2
2017-Jul-20 05:28N 55°14' E 013°47'511.2
2017-Jul-20 05:00N 55°14' E 013°56'611.2
2017-Jul-20 04:30N 55°14' E 014°05'611.0
2017-Jul-20 04:00N 55°14' E 014°15'510.4
2017-Jul-20 03:30N 55°18' E 014°21'510.9
2017-Jul-20 03:00N 55°22' E 014°27'611.0
2017-Jul-20 02:30N 55°26' E 014°33'510.8
2017-Jul-20 02:01N 55°29' E 014°41'510.7
2017-Jul-20 01:31N 55°32' E 014°49'510.9
2017-Jul-20 01:01N 55°35' E 014°58'611.2
2017-Jul-20 00:31N 55°37' E 015°06'611.4
2017-Jul-20 00:01N 55°40' E 015°15'611.3
2017-Jul-19 23:31N 55°43' E 015°24'611.2
2017-Jul-19 23:00N 55°46' E 015°32'611.2
2017-Jul-19 22:31N 55°49' E 015°41'611.4
2017-Jul-19 22:01N 55°51' E 015°50'611.3
2017-Jul-19 21:31N 55°54' E 015°58'611.1
2017-Jul-19 21:00N 55°57' E 016°07'611.3
2017-Jul-19 20:30N 55°60' E 016°16'611.2
2017-Jul-19 20:01N 56°03' E 016°24'611.3
2017-Jul-19 19:31N 56°06' E 016°33'611.2
2017-Jul-19 19:01N 56°08' E 016°42'510.9
2017-Jul-19 18:30N 56°13' E 016°46'611.1
2017-Jul-19 18:00N 56°18' E 016°50'510.9
2017-Jul-19 17:30N 56°24' E 016°53'610.7
2017-Jul-19 16:57N 56°29' E 016°57'611.0
2017-Jul-19 16:26N 56°34' E 017°01'511.2
2017-Jul-19 16:00N 56°39' E 017°04'16911.1
2017-Jul-19 00:45N 59°09' E 019°31'310.7
2017-Jul-19 00:26N 59°12' E 019°35'510.9
2017-Jul-19 00:00N 59°16' E 019°39'510.9
2017-Jul-18 23:30N 59°21' E 019°44'610.9
2017-Jul-18 23:00N 59°25' E 019°50'510.8
2017-Jul-18 22:31N 59°30' E 019°55'510.8
2017-Jul-18 22:01N 59°35' E 019°58'611.0
2017-Jul-18 21:30N 59°40' E 019°52'611.0
2017-Jul-18 21:00N 59°44' E 019°45'611.8
2017-Jul-18 20:30N 59°49' E 019°37'510.7
2017-Jul-18 20:00N 59°53' E 019°31'611.9
2017-Jul-18 19:30N 59°57' E 019°23'510.1
2017-Jul-18 19:01N 60°01' E 019°16'611.1
2017-Jul-18 18:31N 60°05' E 019°09'611.1
2017-Jul-18 18:00N 60°10' E 019°02'510.9
2017-Jul-18 17:31N 60°15' E 019°00'611.0
2017-Jul-18 17:01N 60°21' E 018°59'611.0
2017-Jul-18 16:31N 60°26' E 018°59'611.0
2017-Jul-18 16:00N 60°32' E 018°59'611.1
2017-Jul-18 15:31N 60°37' E 019°01'611.0
2017-Jul-18 15:01N 60°42' E 019°03'1111.1
2017-Jul-18 14:00N 60°53' E 019°08'611.1
2017-Jul-18 13:31N 60°59' E 019°10'8210.8
2017-Jul-18 05:54N 62°19' E 019°44'410.4
2017-Jul-18 05:30N 62°23' E 019°46'510.3
2017-Jul-18 05:00N 62°28' E 019°48'510.3
2017-Jul-18 04:30N 62°33' E 019°50'510.4
2017-Jul-18 03:59N 62°38' E 019°52'510.6
2017-Jul-18 03:30N 62°43' E 019°55'510.6
2017-Jul-18 03:00N 62°49' E 019°57'510.5
2017-Jul-18 02:31N 62°54' E 019°59'510.8
2017-Jul-18 02:01N 62°59' E 020°01'511.0
2017-Jul-18 01:31N 63°04' E 020°04'611.2
2017-Jul-18 01:00N 63°10' E 020°06'510.9
2017-Jul-18 00:31N 63°14' E 020°13'611.2
2017-Jul-18 00:01N 63°19' E 020°21'611.2
2017-Jul-17 23:31N 63°23' E 020°29'510.9
2017-Jul-17 23:00N 63°27' E 020°37'510.7
2017-Jul-17 22:31N 63°32' E 020°42'510.4
2017-Jul-17 22:00N 63°33' E 020°53'510.4
2017-Jul-17 21:30N 63°35' E 021°04'510.5
2017-Jul-17 21:01N 63°38' E 021°14'611.1
2017-Jul-17 20:30N 63°41' E 021°25'510.5
2017-Jul-17 20:00N 63°43' E 021°36'510.5
2017-Jul-17 19:31N 63°46' E 021°46'510.9
2017-Jul-17 19:01N 63°48' E 021°57'510.9
2017-Jul-17 18:31N 63°51' E 022°08'510.7
2017-Jul-17 18:01N 63°53' E 022°19'510.8
2017-Jul-17 17:31N 63°56' E 022°29'510.7
2017-Jul-17 17:00N 63°59' E 022°40'5 9.7
2017-Jul-17 16:31N 64°00' E 022°51'510.6
2017-Jul-17 16:00N 63°56' E 022°58'4 8.9
2017-Jul-17 15:31N 63°52' E 023°02'0 0.1
2017-Jul-17 15:00N 63°52' E 023°02'0 0.0
2017-Jul-17 14:30N 63°52' E 023°02'0 0.0
2017-Jul-17 13:59N 63°52' E 023°02'0 0.0
2017-Jul-17 13:23N 63°52' E 023°02'0 0.0
2017-Jul-17 12:59N 63°52' E 023°02'0 0.0
2017-Jul-17 12:29N 63°52' E 023°02'0 0.0
2017-Jul-17 11:58N 63°52' E 023°02'0 0.0
2017-Jul-17 11:22N 63°52' E 023°02'0 0.0
2017-Jul-17 10:58N 63°52' E 023°02'0 0.0
2017-Jul-17 10:28N 63°52' E 023°02'0 0.0
2017-Jul-17 09:58N 63°52' E 023°02'0 0.0
2017-Jul-17 09:27N 63°52' E 023°02'0 0.0
2017-Jul-17 09:00N 63°52' E 023°02'0 0.0
2017-Jul-17 08:27N 63°52' E 023°02'0 0.0
2017-Jul-17 07:57N 63°52' E 023°02'0 0.0
2017-Jul-17 07:27N 63°52' E 023°02'0 0.0
2017-Jul-17 06:56N 63°52' E 023°02'0 0.0
2017-Jul-17 06:26N 63°52' E 023°02'0 0.0
2017-Jul-17 05:56N 63°52' E 023°02'0 0.0
2017-Jul-17 05:29N 63°52' E 023°02'0 0.0
2017-Jul-17 04:58N 63°52' E 023°02'0 0.0
2017-Jul-17 04:25N 63°52' E 023°02'0 0.0
2017-Jul-17 03:55N 63°52' E 023°02'0 0.0
2017-Jul-17 03:25N 63°52' E 023°02'0 0.0
2017-Jul-17 02:55N 63°52' E 023°02'0 0.0
2017-Jul-17 02:30N 63°52' E 023°02'0 0.0
2017-Jul-17 02:00N 63°52' E 023°02'0 0.0
2017-Jul-17 01:30N 63°52' E 023°02'0 0.0
2017-Jul-17 01:00N 63°52' E 023°02'0 0.0
2017-Jul-17 00:30N 63°52' E 023°02'0 0.0
2017-Jul-16 23:59N 63°52' E 023°02'0 0.0
2017-Jul-16 23:29N 63°52' E 023°02'0 0.0
2017-Jul-16 22:59N 63°52' E 023°02'0 0.0
2017-Jul-16 22:29N 63°52' E 023°02'0 0.0
2017-Jul-16 21:58N 63°52' E 023°02'0 0.0
2017-Jul-16 21:28N 63°52' E 023°02'0 0.0
2017-Jul-16 21:00N 63°52' E 023°02'0 0.0
2017-Jul-16 20:27N 63°52' E 023°02'0 0.0
2017-Jul-16 19:57N 63°52' E 023°02'0 0.0
2017-Jul-16 19:28N 63°52' E 023°02'0 0.0
2017-Jul-16 18:57N 63°52' E 023°02'0 0.0
2017-Jul-16 18:30N 63°52' E 023°02'0 0.0
2017-Jul-16 18:00N 63°52' E 023°02'0 0.0
2017-Jul-16 17:29N 63°52' E 023°02'0 0.0
2017-Jul-16 16:59N 63°52' E 023°02'0 0.0
2017-Jul-16 16:29N 63°52' E 023°02'0 0.0
2017-Jul-16 15:59N 63°52' E 023°02'0 0.0
2017-Jul-16 15:29N 63°52' E 023°02'0 0.0
2017-Jul-16 14:55N 63°52' E 023°02'0 0.0
2017-Jul-16 14:29N 63°52' E 023°02'0 0.0
2017-Jul-16 13:59N 63°52' E 023°02'0 0.0
2017-Jul-16 13:28N 63°52' E 023°02'0 0.0
2017-Jul-16 12:56N 63°52' E 023°02'0 0.0
2017-Jul-16 12:28N 63°52' E 023°02'0 0.0
2017-Jul-16 11:54N 63°52' E 023°02'0 0.0
2017-Jul-16 11:26N 63°52' E 023°02'0 0.2
2017-Jul-16 11:01N 63°52' E 023°02'3 6.8
2017-Jul-16 10:30N 63°55' E 022°58'611.6
2017-Jul-16 10:00N 63°60' E 022°51'510.6
2017-Jul-16 09:30N 63°58' E 022°39'611.0
2017-Jul-16 09:00N 63°55' E 022°28'510.1
2017-Jul-16 08:30N 63°53' E 022°18'612.2
2017-Jul-16 08:00N 63°50' E 022°06'612.3
2017-Jul-16 07:30N 63°47' E 021°54'612.0
2017-Jul-16 07:00N 63°44' E 021°42'611.7
2017-Jul-16 06:31N 63°41' E 021°30'612.5
2017-Jul-16 06:00N 63°38' E 021°18'612.6
2017-Jul-16 05:30N 63°35' E 021°05'612.2
2017-Jul-16 05:00N 63°33' E 020°52'611.7
2017-Jul-16 04:30N 63°30' E 020°42'612.9
2017-Jul-16 04:00N 63°24' E 020°34'612.8
2017-Jul-16 03:31N 63°19' E 020°28'713.2
2017-Jul-16 03:00N 63°12' E 020°26'612.5
2017-Jul-16 02:30N 63°06' E 020°25'714.3
2017-Jul-16 02:00N 62°59' E 020°25'612.4
2017-Jul-16 01:31N 62°53' E 020°24'611.8
2017-Jul-16 01:00N 62°47' E 020°23'714.0
2017-Jul-16 00:30N 62°40' E 020°25'612.9
2017-Jul-16 00:00N 62°34' E 020°30'612.6
2017-Jul-15 23:30N 62°28' E 020°35'612.9
2017-Jul-15 23:00N 62°22' E 020°39'612.4
2017-Jul-15 22:30N 62°16' E 020°44'612.4
2017-Jul-15 22:00N 62°10' E 020°48'612.3
2017-Jul-15 21:30N 62°04' E 020°53'714.4
2017-Jul-15 21:00N 61°58' E 020°58'611.8
2017-Jul-15 20:30N 61°52' E 021°03'713.7
2017-Jul-15 20:00N 61°46' E 021°08'713.5
2017-Jul-15 19:30N 61°39' E 021°12'510.2
2017-Jul-15 19:00N 61°34' E 021°16'4 8.2
2017-Jul-15 18:31N 61°35' E 021°25'3 4.9
2017-Jul-15 17:58N 61°36' E 021°30'0 0.0
2017-Jul-15 17:28N 61°36' E 021°30'0 0.0
2017-Jul-15 16:58N 61°36' E 021°30'0 0.0
2017-Jul-15 16:28N 61°36' E 021°30'0 0.0
2017-Jul-15 15:58N 61°36' E 021°30'0 0.0
2017-Jul-15 15:30N 61°36' E 021°30'0 0.0
2017-Jul-15 15:00N 61°36' E 021°30'0 0.0
2017-Jul-15 14:00N 61°36' E 021°30'0 0.0
2017-Jul-15 13:29N 61°36' E 021°30'0 0.0
2017-Jul-15 12:59N 61°36' E 021°30'0 0.0
2017-Jul-15 12:29N 61°36' E 021°30'0 0.0
2017-Jul-15 11:59N 61°36' E 021°30'0 0.0
2017-Jul-15 11:29N 61°36' E 021°30'0 0.0
2017-Jul-15 10:58N 61°36' E 021°30'0 0.0
2017-Jul-15 10:28N 61°36' E 021°30'0 0.0
2017-Jul-15 09:58N 61°36' E 021°30'0 0.0
2017-Jul-15 09:28N 61°36' E 021°30'0 0.0
2017-Jul-15 08:57N 61°36' E 021°30'0 0.0
2017-Jul-15 08:30N 61°36' E 021°30'0 0.0
2017-Jul-15 08:00N 61°36' E 021°30'0 0.0
2017-Jul-15 07:30N 61°36' E 021°30'0 0.0
2017-Jul-15 07:00N 61°36' E 021°30'0 0.0
2017-Jul-15 06:29N 61°36' E 021°30'0 0.0
2017-Jul-15 05:59N 61°36' E 021°30'0 0.0
2017-Jul-15 05:29N 61°36' E 021°30'0 0.0
2017-Jul-15 04:59N 61°36' E 021°30'0 0.0
2017-Jul-15 04:29N 61°36' E 021°30'0 0.0
2017-Jul-15 03:58N 61°36' E 021°30'0 0.0
2017-Jul-15 03:28N 61°36' E 021°30'0 0.0
2017-Jul-15 02:58N 61°36' E 021°30'0 0.0
2017-Jul-15 02:28N 61°36' E 021°30'0 0.0
2017-Jul-15 02:00N 61°36' E 021°30'0 0.0
2017-Jul-15 01:30N 61°36' E 021°30'0 0.0
2017-Jul-15 01:00N 61°36' E 021°30'0 0.0
2017-Jul-15 00:30N 61°36' E 021°30'0 0.0
2017-Jul-15 00:00N 61°36' E 021°30'0 0.0
2017-Jul-14 23:29N 61°36' E 021°30'0 0.0
2017-Jul-14 22:59N 61°36' E 021°30'0 0.0
2017-Jul-14 22:26N 61°36' E 021°30'0 0.0
2017-Jul-14 21:59N 61°36' E 021°30'0 0.0
2017-Jul-14 21:29N 61°36' E 021°30'0 0.0
2017-Jul-14 20:58N 61°36' E 021°30'0 0.0
2017-Jul-14 20:28N 61°36' E 021°30'0 0.0
2017-Jul-14 19:59N 61°36' E 021°30'0 0.0
2017-Jul-14 19:28N 61°36' E 021°30'0 0.0
2017-Jul-14 18:58N 61°36' E 021°30'0 0.0
2017-Jul-14 18:26N 61°36' E 021°30'0 0.0
2017-Jul-14 17:59N 61°36' E 021°30'0 0.0
2017-Jul-14 17:28N 61°36' E 021°30'0 0.0
2017-Jul-14 16:58N 61°36' E 021°30'0 0.0
2017-Jul-14 16:27N 61°36' E 021°30'0 0.0
2017-Jul-14 15:59N 61°36' E 021°30'0 0.0
2017-Jul-14 15:27N 61°36' E 021°30'0 0.0
2017-Jul-14 14:59N 61°36' E 021°30'0 0.0
2017-Jul-14 14:26N 61°36' E 021°30'0 0.0
2017-Jul-14 13:59N 61°36' E 021°30'0 0.0
2017-Jul-14 13:28N 61°36' E 021°30'0 0.0
2017-Jul-14 12:58N 61°36' E 021°30'0 0.0
2017-Jul-14 12:29N 61°36' E 021°30'0 0.0
2017-Jul-14 12:00N 61°36' E 021°30'0 0.0
2017-Jul-14 11:30N 61°36' E 021°30'0 0.0
2017-Jul-14 10:58N 61°36' E 021°30'0 0.0
2017-Jul-14 10:27N 61°36' E 021°30'0 0.0
2017-Jul-14 09:51N 61°36' E 021°30'0 0.0
2017-Jul-14 09:30N 61°36' E 021°30'0 0.0
2017-Jul-14 09:00N 61°36' E 021°30'0 0.0
2017-Jul-14 08:29N 61°36' E 021°30'0 0.0
2017-Jul-14 07:59N 61°36' E 021°30'0 0.0
2017-Jul-14 07:26N 61°36' E 021°30'0 0.0
2017-Jul-14 06:59N 61°36' E 021°30'0 0.0
2017-Jul-14 06:30N 61°36' E 021°30'0 0.0
2017-Jul-14 06:00N 61°36' E 021°30'0 0.0
2017-Jul-14 05:31N 61°36' E 021°30'0 0.0
2017-Jul-14 05:01N 61°36' E 021°30'0 0.0
2017-Jul-14 04:30N 61°36' E 021°30'0 0.0
2017-Jul-14 04:00N 61°36' E 021°30'0 0.0
2017-Jul-14 03:30N 61°36' E 021°30'0 0.0
2017-Jul-14 03:00N 61°36' E 021°30'0 0.0
2017-Jul-14 02:30N 61°36' E 021°30'0 0.0
2017-Jul-14 02:00N 61°36' E 021°30'0 0.0
2017-Jul-14 01:30N 61°36' E 021°30'0 0.0
2017-Jul-14 01:00N 61°36' E 021°30'0 0.0
2017-Jul-14 00:30N 61°36' E 021°30'0 0.0
2017-Jul-14 00:00N 61°36' E 021°30'0 0.0
2017-Jul-13 23:30N 61°36' E 021°30'0 0.0
2017-Jul-13 23:00N 61°36' E 021°30'0 0.0
2017-Jul-13 22:30N 61°36' E 021°30'0 0.0
2017-Jul-13 22:00N 61°36' E 021°30'0 0.0
2017-Jul-13 21:30N 61°36' E 021°30'0 0.0
2017-Jul-13 21:00N 61°36' E 021°30'0 0.0
2017-Jul-13 20:30N 61°36' E 021°30'0 0.0
2017-Jul-13 20:00N 61°36' E 021°30'0 0.0
2017-Jul-13 19:30N 61°36' E 021°30'0 0.0
2017-Jul-13 19:00N 61°36' E 021°30'0 0.0
2017-Jul-13 18:30N 61°36' E 021°30'0 0.0
2017-Jul-13 18:00N 61°36' E 021°30'0 0.0
2017-Jul-13 17:30N 61°36' E 021°30'0 0.0
2017-Jul-13 17:00N 61°36' E 021°30'0 0.0
2017-Jul-13 16:30N 61°36' E 021°30'0 0.0
2017-Jul-13 16:00N 61°36' E 021°30'0 0.0
2017-Jul-13 15:30N 61°36' E 021°30'0 0.0
2017-Jul-13 15:00N 61°36' E 021°30'0 0.0
2017-Jul-13 14:30N 61°36' E 021°30'0 0.0
2017-Jul-13 14:00N 61°36' E 021°30'0 0.0
2017-Jul-13 13:30N 61°36' E 021°30'0 0.0
2017-Jul-13 13:00N 61°36' E 021°30'0 0.0
2017-Jul-13 12:30N 61°36' E 021°30'0 0.0
2017-Jul-13 12:00N 61°36' E 021°30'0 0.0
2017-Jul-13 11:30N 61°36' E 021°30'0 0.0
2017-Jul-13 11:00N 61°36' E 021°30'0 0.0
2017-Jul-13 10:30N 61°36' E 021°30'0 0.0
2017-Jul-13 10:00N 61°36' E 021°30'0 0.0
2017-Jul-13 09:30N 61°36' E 021°30'0 0.0
2017-Jul-13 09:00N 61°36' E 021°30'0 0.0
2017-Jul-13 08:30N 61°36' E 021°30'0 0.0
2017-Jul-13 08:00N 61°36' E 021°30'0 0.0
2017-Jul-13 07:30N 61°36' E 021°30'0 0.0
2017-Jul-13 07:00N 61°36' E 021°30'0 0.0
2017-Jul-13 06:30N 61°36' E 021°30'0 0.0
2017-Jul-13 06:00N 61°36' E 021°30'0 0.0
2017-Jul-13 05:30N 61°36' E 021°30'0 0.0
2017-Jul-13 05:00N 61°36' E 021°30'0 0.0
2017-Jul-13 04:30N 61°36' E 021°30'0 0.0
2017-Jul-13 04:00N 61°36' E 021°30'0 0.0
2017-Jul-13 03:30N 61°36' E 021°30'0 0.0
2017-Jul-13 03:00N 61°36' E 021°30'0 0.0
2017-Jul-13 02:30N 61°36' E 021°30'0 0.0
2017-Jul-13 02:00N 61°36' E 021°30'0 0.0
2017-Jul-13 01:30N 61°36' E 021°30'0 0.0
2017-Jul-13 01:00N 61°36' E 021°30'0 0.0
2017-Jul-13 00:30N 61°36' E 021°30'0 0.0
2017-Jul-13 00:00N 61°36' E 021°30'0 0.0
2017-Jul-12 23:30N 61°36' E 021°30'0 0.0
2017-Jul-12 23:01N 61°36' E 021°30'0 0.0
2017-Jul-12 22:30N 61°36' E 021°30'0 0.0
2017-Jul-12 22:00N 61°36' E 021°30'0 0.0
2017-Jul-12 21:30N 61°36' E 021°30'0 0.0
2017-Jul-12 21:00N 61°36' E 021°30'0 0.0
2017-Jul-12 20:30N 61°36' E 021°30'0 0.0
2017-Jul-12 20:00N 61°36' E 021°30'0 0.0
2017-Jul-12 19:30N 61°36' E 021°30'0 0.0
2017-Jul-12 19:00N 61°36' E 021°30'0 0.0
2017-Jul-12 18:30N 61°36' E 021°30'0 0.0
2017-Jul-12 18:00N 61°36' E 021°30'0 0.0
2017-Jul-12 17:30N 61°36' E 021°30'0 0.0
2017-Jul-12 17:00N 61°36' E 021°30'0 0.0
2017-Jul-12 16:30N 61°36' E 021°30'0 0.0
2017-Jul-12 16:00N 61°36' E 021°30'0 0.0
2017-Jul-12 15:31N 61°36' E 021°30'0 0.0
2017-Jul-12 15:00N 61°36' E 021°30'0 0.0
2017-Jul-12 14:00N 61°36' E 021°30'0 0.0
2017-Jul-12 13:30N 61°36' E 021°30'0 0.0
2017-Jul-12 13:00N 61°36' E 021°30'0 0.0
2017-Jul-12 12:30N 61°36' E 021°30'0 0.0
2017-Jul-12 12:00N 61°36' E 021°30'0 0.0
2017-Jul-12 11:30N 61°36' E 021°30'0 0.0
2017-Jul-12 11:00N 61°36' E 021°30'0 0.0
2017-Jul-12 10:30N 61°36' E 021°30'0 0.0
2017-Jul-12 10:00N 61°36' E 021°30'0 0.0
2017-Jul-12 09:30N 61°36' E 021°30'0 0.0
2017-Jul-12 09:00N 61°36' E 021°30'0 0.0
2017-Jul-12 08:30N 61°36' E 021°30'0 0.0
2017-Jul-12 08:00N 61°36' E 021°30'0 0.0
2017-Jul-12 07:31N 61°36' E 021°30'0 0.0
2017-Jul-12 07:00N 61°36' E 021°30'0 0.0
2017-Jul-12 06:30N 61°36' E 021°30'0 0.0
2017-Jul-12 06:01N 61°36' E 021°30'0 0.0
2017-Jul-12 05:30N 61°36' E 021°30'0 0.0
2017-Jul-12 05:00N 61°36' E 021°30'0 0.0
2017-Jul-12 04:30N 61°36' E 021°30'0 0.0
2017-Jul-12 04:00N 61°36' E 021°30'0 0.0
2017-Jul-12 03:30N 61°36' E 021°30'0 0.0
2017-Jul-12 03:00N 61°36' E 021°30'0 0.0
2017-Jul-12 02:30N 61°36' E 021°30'0 0.0
2017-Jul-12 02:00N 61°36' E 021°30'0 0.0
2017-Jul-12 01:30N 61°36' E 021°30'0 0.0
2017-Jul-12 01:00N 61°36' E 021°30'0 0.0
2017-Jul-12 00:30N 61°36' E 021°30'0 0.0
2017-Jul-12 00:00N 61°36' E 021°30'0 0.0
2017-Jul-11 23:30N 61°36' E 021°30'0 0.0
2017-Jul-11 23:00N 61°36' E 021°30'0 0.0
2017-Jul-11 22:30N 61°36' E 021°30'0 0.0
2017-Jul-11 22:00N 61°36' E 021°30'0 0.0
2017-Jul-11 21:30N 61°36' E 021°30'0 0.0
2017-Jul-11 21:00N 61°36' E 021°30'0 0.0
2017-Jul-11 20:30N 61°36' E 021°30'0 0.0
2017-Jul-11 20:00N 61°36' E 021°30'0 0.0
2017-Jul-11 19:31N 61°36' E 021°30'0 0.0
2017-Jul-11 19:00N 61°36' E 021°30'0 0.0
2017-Jul-11 18:30N 61°36' E 021°30'0 0.0
2017-Jul-11 18:00N 61°36' E 021°30'0 0.0
2017-Jul-11 17:30N 61°36' E 021°30'0 0.0
2017-Jul-11 17:00N 61°36' E 021°30'0 0.0
2017-Jul-11 16:30N 61°36' E 021°30'0 0.0
2017-Jul-11 15:57N 61°36' E 021°30'0 0.0
2017-Jul-11 15:30N 61°36' E 021°30'0 0.0
2017-Jul-11 15:00N 61°36' E 021°30'0 0.0
2017-Jul-11 14:30N 61°36' E 021°30'0 0.0
2017-Jul-11 14:00N 61°36' E 021°30'0 0.0
2017-Jul-11 13:30N 61°36' E 021°30'0 0.0
2017-Jul-11 13:00N 61°36' E 021°30'0 0.0
2017-Jul-11 12:30N 61°36' E 021°30'0 0.0
2017-Jul-11 12:00N 61°36' E 021°30'0 0.0
2017-Jul-11 11:30N 61°36' E 021°30'0 0.0
2017-Jul-11 11:00N 61°36' E 021°30'0 0.0
2017-Jul-11 10:30N 61°36' E 021°30'0 0.0
2017-Jul-11 10:00N 61°36' E 021°30'0 0.0
2017-Jul-11 09:30N 61°36' E 021°30'0 0.0
2017-Jul-11 09:00N 61°36' E 021°30'0 0.0
2017-Jul-11 08:30N 61°36' E 021°30'0 0.0
2017-Jul-11 08:00N 61°36' E 021°30'0 0.0
2017-Jul-11 07:30N 61°36' E 021°30'0 0.0
2017-Jul-11 07:00N 61°36' E 021°30'0 0.0
2017-Jul-11 06:30N 61°36' E 021°30'0 0.0
2017-Jul-11 06:00N 61°36' E 021°30'0 0.0
2017-Jul-11 05:30N 61°36' E 021°30'0 0.0
2017-Jul-11 05:00N 61°36' E 021°30'0 0.0
2017-Jul-11 04:30N 61°36' E 021°30'0 0.0
2017-Jul-11 04:00N 61°36' E 021°30'0 0.0
2017-Jul-11 03:30N 61°36' E 021°30'0 0.0
2017-Jul-11 03:00N 61°36' E 021°30'0 0.0
2017-Jul-11 02:30N 61°36' E 021°30'0 0.0
2017-Jul-11 02:00N 61°36' E 021°30'0 0.0
2017-Jul-11 01:30N 61°36' E 021°30'0 0.0
2017-Jul-11 01:00N 61°36' E 021°30'0 0.0
2017-Jul-11 00:30N 61°36' E 021°30'0 0.0
2017-Jul-11 00:00N 61°36' E 021°30'0 0.0
2017-Jul-10 23:30N 61°36' E 021°30'0 0.0
2017-Jul-10 23:00N 61°36' E 021°30'0 0.0
2017-Jul-10 22:30N 61°36' E 021°30'0 0.0
2017-Jul-10 22:00N 61°36' E 021°30'0 0.0
2017-Jul-10 21:31N 61°36' E 021°30'0 0.0
2017-Jul-10 21:00N 61°36' E 021°30'0 0.0
2017-Jul-10 20:31N 61°36' E 021°30'0 0.0
2017-Jul-10 20:00N 61°36' E 021°30'  

Dump ship's entire track history